Time;durP1;ratioP1;P1;durP2;ratioP2;P2;SDS_P1;SDS_P2;PMS_P1;PMS_P2;Temp;Humidity;BMP_temperature;BMP_pressure;BME280_temperature;BME280_humidity;BME280_pressure;Samples;Min_cycle;Max_cycle;Signal;HPM_P1;HPM_P2
2022/11/11 05:30:28;;;;;;;;;8.50;8.50;;;;;11.36;72.64;102600.44;4992745;28;46669;-71
2022/11/11 05:32:54;;;;;;;;;9.50;7.25;;;;;11.29;72.42;102593.41;4973842;28;45263;-72
2022/11/11 05:35:19;;;;;;;;;10.00;8.50;;;;;11.34;72.64;102607.63;4974397;28;46081;-72
2022/11/11 05:38:19;;;;;;;;;7.00;6.25;;;;;11.33;72.72;102612.09;4974468;28;45252;-70
2022/11/11 05:40:30;;;;;;;;;10.25;9.75;;;;;11.33;72.52;102613.91;4973743;28;45351;-71
2022/11/11 05:42:55;;;;;;;;;10.75;10.75;;;;;11.15;73.13;102572.19;4957056;28;46088;-72
2022/11/11 05:45:20;;;;;;;;;7.75;7.25;;;;;11.41;72.75;102611.06;4973680;28;56465;-70
2022/11/11 05:47:46;;;;;;;;;10.50;8.00;;;;;11.45;73.30;102607.41;4974117;28;52682;-72
2022/11/11 05:50:11;;;;;;;;;13.00;9.50;;;;;11.45;72.88;102605.63;4973964;28;45414;-70
2022/11/11 05:52:36;;;;;;;;;9.75;9.75;;;;;11.46;72.03;102596.66;4974472;28;45350;-71
2022/11/11 05:55:02;;;;;;;;;9.25;9.25;;;;;11.48;72.56;102594.81;4973899;28;45432;-71
2022/11/11 05:57:27;;;;;;;;;11.00;9.25;;;;;11.51;72.16;102607.28;4974209;28;45331;-71
2022/11/11 05:59:52;;;;;;;;;10.75;9.00;;;;;11.47;72.86;102597.53;4974339;28;45496;-72
2022/11/11 06:02:18;;;;;;;;;10.75;10.25;;;;;11.54;72.64;102605.44;4974398;28;45515;-71
2022/11/11 06:04:43;;;;;;;;;9.00;9.00;;;;;11.52;72.16;102598.31;4956544;28;47889;-72
2022/11/11 06:07:08;;;;;;;;;12.75;10.00;;;;;11.57;71.82;102612.56;4976012;28;45271;-71
2022/11/11 06:09:34;;;;;;;;;11.00;10.00;;;;;11.56;71.58;102606.28;4977856;28;45380;-73
2022/11/11 06:11:59;;;;;;;;;9.00;9.00;;;;;11.53;71.78;102614.41;4977825;28;45556;-71
2022/11/11 06:14:24;;;;;;;;;10.25;10.25;;;;;11.50;71.29;102617.13;4977396;28;46797;-72
2022/11/11 06:16:50;;;;;;;;;14.50;10.75;;;;;11.51;71.46;102629.66;4977746;28;45338;-71
2022/11/11 06:19:15;;;;;;;;;11.50;9.00;;;;;11.49;71.83;102610.00;4977665;28;45354;-69
2022/11/11 06:21:55;;;;;;;;;9.50;8.50;;;;;11.49;71.67;102620.72;4959706;28;47101;-71
2022/11/11 06:24:21;;;;;;;;;9.00;7.75;;;;;11.43;71.90;102611.91;4979362;28;46342;-71
2022/11/11 06:26:46;;;;;;;;;10.25;8.50;;;;;11.48;71.57;102631.53;4964754;28;45408;-71
2022/11/11 06:29:12;;;;;;;;;11.25;10.50;;;;;11.22;71.63;102594.44;4957812;28;45416;-71
2022/11/11 06:31:37;;;;;;;;;9.00;8.50;;;;;11.29;71.54;102607.72;4963670;28;45392;-72
2022/11/11 06:34:02;;;;;;;;;11.50;9.00;;;;;11.38;71.41;102620.09;4978888;28;45348;-72
2022/11/11 06:36:28;;;;;;;;;4.75;4.25;;;;;11.34;71.55;102619.25;4977518;28;45338;-73
2022/11/11 06:38:53;;;;;;;;;9.25;8.25;;;;;11.50;71.58;102640.44;4976487;28;45475;-70
2022/11/11 06:41:19;;;;;;;;;8.25;8.25;;;;;11.44;71.35;102624.44;4976846;28;45476;-72
2022/11/11 06:43:45;;;;;;;;;6.25;5.25;;;;;11.51;71.22;102644.88;4976504;28;45348;-73
2022/11/11 06:46:19;;;;;;;;;7.50;5.50;;;;;11.50;70.99;102635.06;4976843;28;45421;-72
2022/11/11 06:48:45;;;;;;;;;4.00;4.00;;;;;11.44;71.47;102640.56;4977185;28;45468;-71
2022/11/11 06:51:12;;;;;;;;;10.25;7.50;;;;;11.43;71.52;102650.41;4976632;28;45572;-73
2022/11/11 06:53:37;;;;;;;;;4.50;4.50;;;;;11.42;71.73;102654.00;4976671;28;46103;-72
2022/11/11 06:56:03;;;;;;;;;6.25;5.00;;;;;11.46;71.95;102663.78;4976910;28;45318;-72
2022/11/11 06:58:28;;;;;;;;;5.00;5.00;;;;;11.45;71.93;102656.66;4977003;28;45243;-71
2022/11/11 07:00:53;;;;;;;;;15.25;13.75;;;;;11.51;72.23;102666.38;4976394;28;45354;-71
2022/11/11 07:03:20;;;;;;;;;9.50;7.25;;;;;11.54;71.94;102663.66;4977444;28;46021;-70
2022/11/11 07:05:46;;;;;;;;;6.00;6.00;;;;;11.49;72.25;102650.28;4975767;28;45329;-72
2022/11/11 07:08:15;;;;;;;;;7.25;5.25;;;;;11.60;71.93;102668.88;4975993;28;45370;-71
2022/11/11 07:10:44;;;;;;;;;4.00;3.00;;;;;11.61;72.05;102667.97;4976628;28;46046;-72
2022/11/11 07:13:10;;;;;;;;;6.00;6.00;;;;;11.62;72.07;102670.63;4976910;28;46143;-72
2022/11/11 07:15:36;;;;;;;;;9.00;9.00;;;;;11.56;71.98;102651.97;4976942;28;45176;-71
2022/11/11 07:18:02;;;;;;;;;7.25;7.25;;;;;11.61;71.59;102665.28;4975796;28;45395;-71
2022/11/11 07:20:28;;;;;;;;;5.75;5.75;;;;;11.59;71.85;102659.06;4976757;28;45392;-70
2022/11/11 07:22:54;;;;;;;;;6.50;6.00;;;;;11.54;71.75;102653.78;4976785;28;45905;-73
2022/11/11 07:25:19;;;;;;;;;8.00;8.00;;;;;11.52;72.42;102650.22;4976063;28;45391;-71
2022/11/11 07:27:45;;;;;;;;;7.25;4.75;;;;;11.45;72.31;102645.91;4977459;28;45460;-72
2022/11/11 07:30:11;;;;;;;;;4.25;4.25;;;;;11.45;72.51;102635.16;4976723;28;45410;-71
2022/11/11 07:32:43;;;;;;;;;7.25;5.50;;;;;11.39;72.83;102646.03;4975522;28;46326;-71
2022/11/11 07:35:09;;;;;;;;;5.25;5.25;;;;;11.48;72.46;102653.03;4975699;28;45513;-71
2022/11/11 07:37:35;;;;;;;;;10.00;7.75;;;;;11.49;72.66;102646.72;4976496;28;45618;-74
2022/11/11 07:40:01;;;;;;;;;9.25;6.25;;;;;11.48;72.60;102645.84;4976406;28;45306;-73
2022/11/11 07:42:26;;;;;;;;;7.50;6.00;;;;;11.46;72.75;102647.69;4976039;28;46109;-76
2022/11/11 07:44:51;;;;;;;;;11.00;9.50;;;;;11.51;72.90;102643.09;4976164;28;45441;-73
2022/11/11 07:47:17;;;;;;;;;7.25;7.25;;;;;11.44;72.78;102619.97;4950216;28;45477;-71
2022/11/11 07:49:42;;;;;;;;;9.25;7.25;;;;;11.54;72.98;102632.28;4956534;28;45484;-73
2022/11/11 07:52:07;;;;;;;;;6.75;6.75;;;;;11.58;72.99;102639.34;4956117;28;46189;-74
2022/11/11 07:54:32;;;;;;;;;10.50;10.25;;;;;11.55;72.53;102631.38;4969489;28;45425;-73
2022/11/11 07:56:58;;;;;;;;;9.00;8.25;;;;;11.63;72.41;102642.84;4976207;28;45270;-73
2022/11/11 07:59:23;;;;;;;;;10.50;9.75;;;;;11.64;72.37;102651.81;4975477;28;45453;-71
2022/11/11 08:01:48;;;;;;;;;10.00;10.00;;;;;11.53;72.40;102635.91;4975784;28;45254;-71
2022/11/11 08:04:14;;;;;;;;;9.25;9.00;;;;;11.54;72.48;102656.47;4975974;28;45188;-73
2022/11/11 08:06:40;;;;;;;;;10.00;10.00;;;;;11.56;72.54;102651.97;4976221;28;45291;-72
2022/11/11 08:09:05;;;;;;;;;7.25;7.25;;;;;11.55;72.37;102658.25;4958651;28;46021;-74
2022/11/11 08:14:15;;;;;;;;;16.25;9.00;;;;;11.57;72.64;102637.59;4962691;28;45262;-72
2022/11/11 08:16:40;;;;;;;;;10.50;8.75;;;;;11.62;71.91;102654.53;4968210;28;46739;-71
2022/11/11 08:19:06;;;;;;;;;8.75;8.75;;;;;11.60;71.78;102645.59;4958583;28;45550;-71
2022/11/11 08:21:31;;;;;;;;;7.25;7.25;;;;;11.62;72.07;102649.16;4957401;28;46505;-76
2022/11/11 08:23:56;;;;;;;;;7.00;6.00;;;;;11.65;71.89;102649.06;4971928;28;45357;-76
2022/11/11 08:26:22;;;;;;;;;7.00;7.00;;;;;11.70;72.16;102657.03;4957693;28;45325;-76
2022/11/11 08:28:48;;;;;;;;;9.75;9.75;;;;;11.68;72.38;102640.06;4955844;28;46245;-78
2022/11/11 08:31:14;;;;;;;;;7.50;7.50;;;;;11.65;72.52;102624.88;4971443;28;46269;-79
2022/11/11 08:33:39;;;;;;;;;11.75;11.75;;;;;11.69;72.30;102623.91;4977671;28;45450;-77
2022/11/11 08:36:06;;;;;;;;;11.50;11.00;;;;;11.86;71.82;102653.16;4975862;28;45529;-76
2022/11/11 08:38:32;;;;;;;;;10.00;10.00;;;;;11.90;71.72;102657.56;4975361;28;45592;-72
2022/11/11 08:41:01;;;;;;;;;7.00;7.00;;;;;11.90;71.53;102662.94;4975192;28;45381;-73
2022/11/11 08:43:31;;;;;;;;;9.25;9.25;;;;;11.72;71.72;102647.16;4975438;28;45519;-81
2022/11/11 08:45:59;;;;;;;;;10.75;7.00;;;;;11.79;71.85;102669.44;4975588;28;45373;-76
2022/11/11 08:48:24;;;;;;;;;10.00;9.00;;;;;11.67;71.98;102649.94;4957590;28;45247;-74
2022/11/11 08:50:51;;;;;;;;;11.25;9.75;;;;;11.77;71.83;102657.84;4975057;28;45935;-76
2022/11/11 08:53:18;;;;;;;;;10.50;9.50;;;;;11.71;72.18;102662.41;4975114;28;45498;-72
2022/11/11 08:55:45;;;;;;;;;10.75;9.75;;;;;11.70;72.26;102659.72;4975564;28;45405;-76
2022/11/11 08:58:14;;;;;;;;;12.00;12.00;;;;;11.76;72.57;102678.44;4974985;28;45359;-72
2022/11/11 09:00:40;;;;;;;;;12.00;10.50;;;;;11.78;72.34;102676.63;4976939;28;45447;-74
2022/11/11 09:03:09;;;;;;;;;15.75;11.25;;;;;11.79;72.26;102675.72;4957904;28;45587;-74
2022/11/11 09:05:37;;;;;;;;;15.25;12.75;;;;;11.84;71.77;102683.66;4976215;28;45278;-74
2022/11/11 09:08:07;;;;;;;;;11.00;11.00;;;;;11.69;71.75;102657.97;4974533;28;45247;-73
2022/11/11 09:10:34;;;;;;;;;10.75;9.25;;;;;11.79;71.73;102674.81;4974686;28;46063;-73
2022/11/11 09:13:00;;;;;;;;;9.50;9.50;;;;;11.80;71.66;102680.16;4956502;28;46000;-73
2022/11/11 09:15:26;;;;;;;;;13.50;10.00;;;;;11.79;71.46;102673.03;4955815;28;45434;-74
2022/11/11 09:17:52;;;;;;;;;10.25;10.00;;;;;11.88;71.70;102680.00;4974800;28;45314;-73
2022/11/11 09:20:18;;;;;;;;;11.75;11.75;;;;;11.89;72.01;102676.41;4974385;28;46305;-75
2022/11/11 09:22:48;;;;;;;;;10.75;8.00;;;;;11.94;71.65;102682.56;4974367;28;45334;-75
2022/11/11 09:25:14;;;;;;;;;11.00;10.25;;;;;11.94;71.28;102685.25;4957534;28;45420;-74
2022/11/11 09:27:40;;;;;;;;;9.25;8.00;;;;;11.91;71.45;102680.81;4974642;28;45379;-73
2022/11/11 09:30:07;;;;;;;;;11.00;10.50;;;;;11.99;71.80;102694.13;4974257;28;46565;-75
2022/11/11 09:32:33;;;;;;;;;12.50;9.75;;;;;12.00;71.33;102690.50;4974412;28;45289;-74
2022/11/11 09:34:59;;;;;;;;;10.00;10.00;;;;;11.92;71.67;102677.22;4974319;28;45260;-73
2022/11/11 09:37:24;;;;;;;;;9.50;8.25;;;;;11.94;71.67;102677.19;4974681;28;45247;-73
2022/11/11 09:39:50;;;;;;;;;12.75;9.00;;;;;12.05;71.56;102694.88;4974466;28;46064;-74
2022/11/11 09:42:17;;;;;;;;;8.25;8.25;;;;;12.05;71.15;102694.00;4976461;28;45179;-73
2022/11/11 09:44:42;;;;;;;;;6.25;6.00;;;;;11.97;71.42;102677.13;4978700;28;45523;-74
2022/11/11 09:47:37;;;;;;;;;9.75;8.50;;;;;12.07;71.38;102687.69;4978314;28;45577;-73
2022/11/11 09:50:10;;;;;;;;;10.00;8.75;;;;;12.10;70.62;102681.31;4978087;28;46803;-72
2022/11/11 09:52:48;;;;;;;;;9.00;9.00;;;;;12.11;70.88;102700.13;4978534;28;45334;-74
2022/11/11 09:55:37;;;;;;;;;9.00;9.00;;;;;11.92;70.57;102671.84;4978094;28;45409;-76
2022/11/11 09:58:09;;;;;;;;;9.75;8.00;;;;;12.03;70.62;102702.09;4978133;28;45388;-73
2022/11/11 10:00:39;;;;;;;;;10.00;9.75;;;;;12.02;70.66;102708.38;4960554;28;47105;-73
2022/11/11 10:03:22;;;;;;;;;11.50;10.75;;;;;12.01;70.84;102713.78;4977909;28;45294;-75
2022/11/11 10:06:06;;;;;;;;;10.00;8.50;;;;;12.04;71.13;102706.53;4978100;28;45218;-73
2022/11/11 10:08:44;;;;;;;;;11.00;11.00;;;;;11.90;70.92;102694.31;4961918;28;45523;-72
2022/11/11 10:11:21;;;;;;;;;11.00;9.50;;;;;11.92;70.43;102704.09;4960899;28;47279;-74
2022/11/11 10:13:46;;;;;;;;;10.25;10.25;;;;;11.95;71.01;102711.22;4981301;28;45410;-73
2022/11/11 10:16:14;;;;;;;;;10.75;10.00;;;;;11.93;70.40;102711.25;4981064;28;45931;-73
2022/11/11 10:19:01;;;;;;;;;7.00;7.00;;;;;11.94;70.41;102713.03;4981335;28;45345;-73
2022/11/11 10:22:01;;;;;;;;;11.50;11.25;;;;;11.92;70.68;102713.97;4978152;28;45369;-73
2022/11/11 10:24:39;;;;;;;;;10.00;10.00;;;;;11.93;70.86;102719.31;4934642;28;45311;-74
2022/11/11 10:27:15;;;;;;;;;10.75;9.00;;;;;11.91;70.60;102715.75;4977828;28;45385;-73
2022/11/11 10:29:43;;;;;;;;;9.00;9.00;;;;;11.86;71.03;102695.28;4977532;28;45403;-74
2022/11/11 10:32:20;;;;;;;;;14.25;13.25;;;;;11.93;70.76;102708.56;4959641;28;46355;-73
2022/11/11 10:34:46;;;;;;;;;8.00;8.00;;;;;11.93;70.64;102711.25;4977415;28;45417;-74
2022/11/11 10:37:23;;;;;;;;;13.50;10.00;;;;;11.83;71.04;102681.88;4977503;28;45524;-74
2022/11/11 10:40:03;;;;;;;;;10.75;9.00;;;;;11.88;70.84;102693.44;4977472;28;45361;-73
2022/11/11 10:42:29;;;;;;;;;10.00;10.00;;;;;11.92;70.91;102696.03;4959788;28;47182;-74
2022/11/11 10:45:15;;;;;;;;;9.00;9.00;;;;;11.91;70.67;102698.78;4977678;28;45437;-75
2022/11/11 10:48:00;;;;;;;;;11.75;10.25;;;;;11.88;70.45;102685.38;4977784;28;45365;-75
2022/11/11 10:50:37;;;;;;;;;10.75;10.75;;;;;12.02;70.23;102700.31;4959542;28;45496;-74
2022/11/11 10:53:27;;;;;;;;;9.50;9.00;;;;;12.06;70.37;102699.34;4973567;28;46079;-74
2022/11/11 10:56:19;;;;;;;;;10.00;10.00;;;;;11.95;69.64;102668.22;4977849;28;45270;-73
2022/11/11 10:58:57;;;;;;;;;9.50;9.50;;;;;12.19;69.83;102705.31;4977912;28;45347;-73
2022/11/11 11:01:34;;;;;;;;;11.00;10.50;;;;;12.20;69.95;102692.78;4977720;28;45319;-73
2022/11/11 11:04:14;;;;;;;;;9.25;9.25;;;;;12.25;69.47;102683.66;4977514;28;45455;-73
2022/11/11 11:06:43;;;;;;;;;11.00;9.00;;;;;12.43;69.59;102707.47;4976849;28;45368;-71
2022/11/11 11:09:25;;;;;;;;;12.50;11.75;;;;;12.47;69.02;102698.44;4959281;28;45313;-74
2022/11/11 11:11:59;;;;;;;;;8.75;8.75;;;;;12.20;68.71;102645.25;4976998;28;45471;-73
2022/11/11 11:14:40;;;;;;;;;12.00;12.00;;;;;12.51;68.32;102692.03;4959044;28;47854;-73
2022/11/11 11:17:33;;;;;;;;;8.50;8.50;;;;;12.55;68.41;102695.56;4976964;28;45488;-73
2022/11/11 11:20:13;;;;;;;;;12.75;11.00;;;;;12.57;68.78;102674.91;4951729;28;45294;-74
2022/11/11 11:22:48;;;;;;;;;11.50;11.25;;;;;12.75;68.52;102673.59;4958919;28;47306;-74
2022/11/11 11:25:14;;;;;;;;;11.25;8.75;;;;;13.00;67.53;102682.81;4976594;28;46060;-73
2022/11/11 11:27:39;;;;;;;;;7.00;7.00;;;;;13.16;66.64;102683.34;4976500;28;45431;-73
2022/11/11 11:30:19;;;;;;;;;12.00;10.25;;;;;13.21;66.06;102684.97;4958283;28;45382;-74
2022/11/11 11:32:59;;;;;;;;;10.50;8.75;;;;;13.29;65.61;102662.34;4969385;28;45469;-74
2022/11/11 11:35:30;;;;;;;;;12.50;10.00;;;;;13.76;64.50;102670.03;4976171;28;45649;-75
2022/11/11 11:37:55;;;;;;;;;2.75;2.75;;;;;14.48;63.48;102679.56;4976787;28;45452;-73
2022/11/11 11:40:20;;;;;;;;;15.50;14.00;;;;;15.28;61.13;102670.59;4976463;28;45291;-73
2022/11/11 11:42:46;;;;;;;;;15.50;12.50;;;;;15.63;60.20;102645.03;4976628;28;45262;-73
2022/11/11 11:45:20;;;;;;;;;13.25;10.25;;;;;15.85;59.73;102664.06;4976282;28;45976;-73
2022/11/11 11:48:16;;;;;;;;;10.00;9.75;;;;;15.95;58.05;102654.66;4976541;28;45561;-72
2022/11/11 11:50:50;;;;;;;;;8.00;8.00;;;;;15.92;57.87;102646.66;4976286;28;45237;-75
2022/11/11 11:53:24;;;;;;;;;14.00;12.75;;;;;16.03;58.20;102649.84;4976309;28;45502;-75
2022/11/11 11:56:03;;;;;;;;;12.50;12.50;;;;;15.88;57.01;102634.19;4976550;28;46409;-73
2022/11/11 11:58:56;;;;;;;;;13.50;12.75;;;;;15.68;57.73;102642.16;4976223;28;45422;-75
2022/11/11 12:01:35;;;;;;;;;14.25;14.25;;;;;15.54;58.42;102641.78;4958558;28;45254;-74
2022/11/11 12:04:25;;;;;;;;;11.75;11.25;;;;;15.42;58.73;102645.78;4975649;28;45363;-74
2022/11/11 12:07:19;;;;;;;;;10.50;10.50;;;;;15.30;58.78;102636.31;4975829;28;45207;-73
2022/11/11 12:10:11;;;;;;;;;16.00;12.50;;;;;15.06;59.09;102640.72;4975962;28;45361;-73
2022/11/11 12:12:56;;;;;;;;;10.00;10.00;;;;;14.95;59.60;102640.22;4977524;28;45493;-73
2022/11/11 12:15:34;;;;;;;;;18.50;16.00;;;;;14.97;59.95;102641.03;4978449;28;45306;-75
2022/11/11 12:18:08;;;;;;;;;12.00;12.00;;;;;14.96;60.37;102636.59;4977201;28;48265;-73
2022/11/11 12:21:07;;;;;;;;;11.50;9.25;;;;;14.96;60.81;102642.00;4977166;28;45354;-73
2022/11/11 12:23:57;;;;;;;;;13.25;13.25;;;;;14.96;61.10;102631.19;4976456;28;45430;-74
2022/11/11 12:26:44;;;;;;;;;8.75;6.00;;;;;14.96;60.89;102627.59;4976059;28;45384;-72
2022/11/11 12:29:41;;;;;;;;;10.25;10.25;;;;;14.93;60.83;102627.69;4975455;28;46044;-74
2022/11/11 12:32:22;;;;;;;;;13.50;13.50;;;;;14.87;60.50;102626.09;4974121;28;45343;-75
2022/11/11 12:35:21;;;;;;;;;11.00;11.00;;;;;14.74;60.93;102622.03;4975820;28;45316;-74
2022/11/11 12:38:11;;;;;;;;;14.25;10.50;;;;;14.62;61.66;102614.34;4975673;28;45238;-75
2022/11/11 12:40:45;;;;;;;;;15.75;12.00;;;;;14.56;61.69;102618.13;4975610;28;45659;-74
2022/11/11 12:43:36;;;;;;;;;15.00;13.25;;;;;14.49;62.04;102613.84;4975791;28;45360;-74
2022/11/11 12:46:10;;;;;;;;;14.25;14.25;;;;;14.39;61.97;102601.59;4948470;28;45322;-73
2022/11/11 12:48:57;;;;;;;;;9.25;9.25;;;;;14.26;62.51;102598.38;4975398;28;45331;-75
2022/11/11 12:51:52;;;;;;;;;9.50;9.50;;;;;14.16;62.59;102579.81;4975194;28;45966;-73
2022/11/11 12:54:42;;;;;;;;;10.50;10.50;;;;;14.31;62.87;102598.22;4957511;28;45387;-73
2022/11/11 12:57:24;;;;;;;;;10.75;10.75;;;;;14.18;62.38;102570.75;4975692;28;45529;-74
2022/11/11 13:00:00;;;;;;;;;20.00;16.25;;;;;14.23;63.28;102587.66;4957642;28;45385;-74
2022/11/11 13:02:34;;;;;;;;;8.75;7.50;;;;;14.25;63.01;102585.81;4963917;28;45385;-73
2022/11/11 13:05:18;;;;;;;;;13.50;12.25;;;;;14.26;63.21;102586.69;4955398;28;45447;-73
2022/11/11 13:08:08;;;;;;;;;12.25;10.75;;;;;14.26;63.34;102574.09;4955391;28;45393;-74
2022/11/11 13:10:39;;;;;;;;;11.75;11.00;;;;;14.29;63.30;102582.06;4955588;28;45318;-74
2022/11/11 13:13:07;;;;;;;;;16.00;13.00;;;;;14.21;62.93;102576.03;4955564;28;46406;-76
2022/11/11 13:15:33;;;;;;;;;11.00;10.25;;;;;14.12;63.46;102573.63;4955278;28;45322;-74
2022/11/11 13:18:00;;;;;;;;;12.25;12.25;;;;;14.18;63.67;102580.66;4955148;28;45280;-73
2022/11/11 13:20:39;;;;;;;;;13.75;13.75;;;;;14.06;63.63;102557.66;4955362;28;45344;-73
2022/11/11 13:23:08;;;;;;;;;10.50;10.50;;;;;14.06;64.32;102563.03;4963383;28;46304;-74
2022/11/11 13:25:37;;;;;;;;;13.50;10.00;;;;;14.10;64.17;102566.53;4974981;28;45500;-75
2022/11/11 13:28:12;;;;;;;;;10.25;10.25;;;;;13.97;64.16;102550.72;4975063;28;45409;-73
2022/11/11 13:30:59;;;;;;;;;9.00;9.00;;;;;14.08;64.21;102560.31;4974641;28;45787;-72
2022/11/11 13:33:34;;;;;;;;;10.25;9.50;;;;;14.11;63.98;102565.63;4974868;28;46393;-73
2022/11/11 13:36:02;;;;;;;;;10.50;10.50;;;;;14.15;63.90;102553.78;4974899;28;45346;-73
2022/11/11 13:38:35;;;;;;;;;8.00;7.75;;;;;14.19;64.35;102556.34;4956844;28;45439;-73
2022/11/11 13:41:05;;;;;;;;;13.50;9.00;;;;;14.20;63.80;102555.41;4974811;28;45330;-74
2022/11/11 13:43:41;;;;;;;;;11.25;9.00;;;;;14.26;63.57;102557.03;4974674;28;45765;-75
2022/11/11 13:46:38;;;;;;;;;11.00;11.00;;;;;14.30;63.35;102553.28;4974896;28;45345;-75
2022/11/11 13:49:07;;;;;;;;;9.00;9.00;;;;;14.35;63.55;102545.94;4959722;28;45503;-73
2022/11/11 13:51:38;;;;;;;;;11.25;9.00;;;;;14.58;63.06;102547.91;4974714;28;45459;-74
2022/11/11 13:54:19;;;;;;;;;11.00;10.00;;;;;15.22;60.97;102542.94;4974625;28;46487;-73
2022/11/11 13:56:46;;;;;;;;;9.75;9.75;;;;;16.16;58.48;102531.19;4974710;28;45338;-75
2022/11/11 13:59:30;;;;;;;;;10.25;10.25;;;;;17.19;56.70;102513.16;4974807;28;45227;-74
2022/11/11 14:02:17;;;;;;;;;13.25;11.00;;;;;18.37;53.55;102522.88;4974683;28;45551;-74
2022/11/11 14:05:07;;;;;;;;;13.50;9.50;;;;;19.29;49.32;102513.56;4973832;28;45358;-73
2022/11/11 14:07:48;;;;;;;;;10.50;10.50;;;;;20.18;49.10;102504.03;4964521;28;45358;-73
2022/11/11 14:10:16;;;;;;;;;7.75;7.75;;;;;20.85;47.54;102508.19;4977634;28;45556;-74
2022/11/11 14:12:45;;;;;;;;;10.50;10.00;;;;;21.42;45.02;102496.44;4977394;28;45509;-73
2022/11/11 14:15:32;;;;;;;;;10.75;9.00;;;;;22.01;43.94;102504.50;4977092;28;45286;-74
2022/11/11 14:17:57;;;;;;;;;14.50;13.25;;;;;22.42;44.08;102504.44;4976008;28;45610;-73
2022/11/11 14:20:33;;;;;;;;;11.00;10.00;;;;;22.73;43.37;102495.88;4974468;28;45495;-73
2022/11/11 14:23:17;;;;;;;;;11.25;8.00;;;;;22.85;41.69;102507.88;4974399;28;45686;-73
2022/11/11 14:25:44;;;;;;;;;8.00;8.00;;;;;22.78;41.65;102492.88;4974157;28;45377;-74
2022/11/11 14:28:25;;;;;;;;;10.25;10.25;;;;;22.62;42.33;102493.91;4958197;28;45965;-74
2022/11/11 14:30:51;;;;;;;;;10.00;10.00;;;;;22.54;42.26;102495.44;4977622;28;45504;-73
2022/11/11 14:33:25;;;;;;;;;9.50;9.50;;;;;22.35;42.49;102495.78;4977857;28;45512;-74
2022/11/11 14:36:01;;;;;;;;;6.25;6.25;;;;;22.11;42.26;102487.41;4977457;28;46229;-73
2022/11/11 14:38:27;;;;;;;;;8.75;8.75;;;;;22.04;43.15;102496.94;4977637;28;45183;-74
2022/11/11 14:40:52;;;;;;;;;9.00;9.00;;;;;21.86;42.81;102498.16;4960124;28;45367;-74
2022/11/11 14:43:39;;;;;;;;;10.50;9.50;;;;;21.73;43.47;102499.91;4977388;28;45506;-72
2022/11/11 14:46:06;;;;;;;;;8.00;8.00;;;;;21.61;44.12;102504.31;4977446;28;45314;-76
2022/11/11 14:48:51;;;;;;;;;8.50;8.50;;;;;21.49;43.39;102502.38;4977356;28;45393;-74
2022/11/11 14:51:38;;;;;;;;;9.25;7.00;;;;;21.35;44.01;102495.06;4977215;28;45429;-74
2022/11/11 14:54:14;;;;;;;;;8.50;8.50;;;;;21.24;43.88;102494.00;4959509;28;46500;-74
2022/11/11 14:56:40;;;;;;;;;9.50;8.25;;;;;21.12;44.31;102499.22;4977221;28;46171;-73
2022/11/11 14:59:10;;;;;;;;;9.75;9.75;;;;;20.93;44.80;102498.59;4959719;28;45298;-74
2022/11/11 15:01:35;;;;;;;;;9.00;8.25;;;;;20.72;45.80;102497.19;4977218;28;45460;-76
2022/11/11 15:04:03;;;;;;;;;13.00;11.00;;;;;20.56;45.93;102486.34;4959530;28;45392;-74
2022/11/11 15:06:39;;;;;;;;;10.00;9.25;;;;;20.55;46.04;102484.56;4946231;28;46987;-74
2022/11/11 15:09:04;;;;;;;;;10.75;10.00;;;;;20.52;45.71;102472.97;4976953;28;45294;-74
2022/11/11 15:11:55;;;;;;;;;11.25;11.25;;;;;20.30;46.37;102478.81;4959597;28;45290;-74
2022/11/11 15:14:45;;;;;;;;;10.00;8.75;;;;;19.94;47.07;102484.53;4977285;28;45320;-73
2022/11/11 15:17:25;;;;;;;;;8.75;8.75;;;;;19.57;48.23;102481.19;4959064;28;47894;-74
2022/11/11 15:19:58;;;;;;;;;10.50;10.50;;;;;19.23;48.96;102478.53;4959026;28;45321;-72
2022/11/11 15:22:33;;;;;;;;;11.50;9.50;;;;;18.94;49.80;102481.97;4976739;28;45358;-74
2022/11/11 15:25:10;;;;;;;;;11.75;11.25;;;;;18.66;50.14;102474.38;4976431;28;45307;-73
2022/11/11 15:27:54;;;;;;;;;8.00;8.00;;;;;18.32;50.98;102470.66;4976490;28;46144;-73
2022/11/11 15:30:24;;;;;;;;;9.50;8.50;;;;;18.02;51.69;102461.34;4958796;28;45499;-74
2022/11/11 15:33:03;;;;;;;;;12.00;10.50;;;;;17.90;52.39;102486.38;4963360;28;45571;-73
2022/11/11 15:35:44;;;;;;;;;12.50;11.50;;;;;17.72;52.71;102486.28;4976278;28;45404;-74
2022/11/11 15:38:13;;;;;;;;;6.00;6.00;;;;;17.48;53.80;102486.56;4976343;28;46417;-74
2022/11/11 15:40:45;;;;;;;;;8.50;8.50;;;;;17.34;54.38;102482.66;4975405;28;45405;-73
2022/11/11 15:43:30;;;;;;;;;13.00;12.00;;;;;17.21;54.46;102496.84;4976440;28;45171;-73
2022/11/11 15:45:58;;;;;;;;;10.00;10.00;;;;;17.08;55.03;102484.81;4976456;28;45310;-73
2022/11/11 15:48:39;;;;;;;;;8.25;8.25;;;;;16.91;55.49;102478.31;4958603;28;47773;-74
2022/11/11 15:51:27;;;;;;;;;8.75;8.25;;;;;16.76;55.71;102470.84;4976295;28;45424;-74
2022/11/11 15:53:53;;;;;;;;;14.50;11.00;;;;;16.69;56.08;102479.31;4978127;28;45317;-74
2022/11/11 15:56:32;;;;;;;;;11.00;11.00;;;;;16.60;56.83;102485.97;4961323;28;46438;-74
2022/11/11 15:59:06;;;;;;;;;11.25;11.25;;;;;16.49;56.67;102489.19;4979607;28;45400;-74
2022/11/11 16:01:31;;;;;;;;;10.25;10.25;;;;;16.34;57.36;102470.84;4979801;28;45282;-72
2022/11/11 16:03:57;;;;;;;;;12.50;11.25;;;;;16.23;57.22;102479.47;4977405;28;45479;-74
2022/11/11 16:06:22;;;;;;;;;14.00;12.25;;;;;16.20;57.98;102490.41;4975705;28;45393;-74
2022/11/11 16:08:51;;;;;;;;;11.50;11.50;;;;;16.06;58.21;102479.28;4976397;28;46578;-72
2022/11/11 16:11:19;;;;;;;;;13.75;13.50;;;;;16.02;58.61;102496.56;4976021;28;45414;-75
2022/11/11 16:13:53;;;;;;;;;11.25;11.25;;;;;15.95;59.00;102500.47;4976295;28;45303;-73
2022/11/11 16:16:23;;;;;;;;;12.25;9.25;;;;;15.85;59.48;102493.66;4975910;28;45382;-72
2022/11/11 16:19:02;;;;;;;;;12.50;12.50;;;;;15.74;59.66;102477.84;4958157;28;47229;-74
2022/11/11 16:21:30;;;;;;;;;12.00;9.75;;;;;15.61;59.99;102471.19;4975627;28;45305;-74
2022/11/11 16:23:58;;;;;;;;;11.00;11.00;;;;;15.58;59.88;102481.22;4975607;28;45415;-73
2022/11/11 16:26:24;;;;;;;;;12.00;9.75;;;;;15.59;60.65;102493.78;4957826;28;45323;-72
2022/11/11 16:28:55;;;;;;;;;7.50;7.50;;;;;15.49;60.98;102480.59;4975683;28;46201;-73
2022/11/11 16:31:35;;;;;;;;;9.25;7.75;;;;;15.42;60.80;102489.00;4975467;28;45463;-73
2022/11/11 16:34:29;;;;;;;;;9.50;9.00;;;;;15.42;61.41;102500.72;4974416;28;45282;-72
2022/11/11 16:37:09;;;;;;;;;10.50;10.50;;;;;15.37;61.65;102500.00;4975763;28;45248;-73
2022/11/11 16:39:35;;;;;;;;;10.50;10.25;;;;;15.30;61.62;102505.72;4957933;28;47086;-75
2022/11/11 16:42:03;;;;;;;;;11.25;10.25;;;;;15.19;62.40;102506.09;4957618;28;45418;-72
2022/11/11 16:44:28;;;;;;;;;8.75;8.75;;;;;15.17;62.67;102517.91;4975825;28;45332;-73
2022/11/11 16:46:54;;;;;;;;;10.00;10.00;;;;;15.08;62.82;102516.41;4975200;28;45278;-72
2022/11/11 16:49:37;;;;;;;;;9.75;9.75;;;;;15.06;62.78;102524.56;4957908;28;48186;-74
2022/11/11 16:52:22;;;;;;;;;9.00;8.00;;;;;14.93;62.94;102503.47;4975488;28;45313;-73
2022/11/11 16:54:58;;;;;;;;;11.00;11.00;;;;;14.92;63.41;102510.69;4954037;28;45519;-73
2022/11/11 16:57:28;;;;;;;;;11.25;11.25;;;;;14.94;63.79;102518.75;4975450;28;45251;-72
2022/11/11 17:00:01;;;;;;;;;12.50;12.50;;;;;14.88;63.82;102517.16;4975145;28;46328;-71
2022/11/11 17:02:26;;;;;;;;;10.00;10.00;;;;;14.78;64.65;102510.31;4975455;28;45321;-74
2022/11/11 17:04:54;;;;;;;;;17.50;14.50;;;;;14.80;64.22;102519.22;4957188;28;45310;-72
2022/11/11 17:07:46;;;;;;;;;14.00;12.50;;;;;14.75;64.33;102534.69;4975177;28;46114;-73
2022/11/11 17:10:18;;;;;;;;;9.25;9.25;;;;;14.69;64.56;102533.09;4971010;28;46194;-74
2022/11/11 17:12:43;;;;;;;;;11.50;9.50;;;;;14.65;65.09;102528.72;4975022;28;45327;-73
2022/11/11 17:15:12;;;;;;;;;20.00;17.00;;;;;14.61;65.14;102529.78;4975306;28;45259;-74